< < Back
Terminal Aerodrome Forecast


Current Version              Previous Versions:   1  2  3  4  5  6  7  8  9  

Terminal Aerodrome Forecast

746
FTUS42 KGSP 231124
TAFAND
TAF
KAND 231124Z 2312/2412 05004KT P6SM FEW250
     FM231800 10007KT P6SM SKC=

Latest METAR

037
SAUS70 KWBC 231100 RRA
MTRAND
METAR KAND 231056Z AUTO 04003KT 10SM CLR 13/07 A3036 RMK AO2 SLP276
T01330072


USA.gov is the U.S. government's official web portal to all federal, state and local government web resources and services.